Aviation Digital Data Service (ADDS)

Output produced by METARs form (0514 UTC 25 May 2018)
found at http://www.aviationweather.gov/adds/metars/
 
FQBR 250500Z /////KT 9999 FEW018 SCT070 22/19 Q1016
TAF FQBR 242200Z 2500/2606 02010KT 9999 BKN020 
     BECMG 2506/2508 32010KT 
     BECMG 2512/2514 08012KT 
     BECMG 2518/2520 24010KT SCT025 
     BECMG 2600/2602 VRB02KT TX29/2513ZTN20/2503Z
       
FQCH 250500Z 31004KT 9999 FEW015 16/16 Q1021
TAF FQCH 242200Z 2500/2600 05008KT 9999 FEW020 
     PROB30 
     TEMPO 2503/2506 BR FEW010 
     BECMG 2506/2508 34010KT SCT020 
     BECMG 2512/2514 VRB03KT 
     BECMG 2518/2520 09008KT TX27/2513Z TN15/2503Z
       
TAF FQIN 242200Z 2500/2600 03010KT 9999 BKN020 
     BECMG 2506/2508 32010KT FEW030 
     BECMG 2512/2514 10010KT TX29/2513Z TN20/2503Z
       
FQLC 250500Z 07009KT 0800 FG SCT002 SCT030 16/16 Q1022
TAF FQLC 242200Z 2500/2600 09005KT 9999 SCT016 
     PROB30 
     TEMPO 2501/2506 BR FEW010 
     BECMG 2506/2508 03008KT BKN015 
     BECMG 2512/2514 16012KT SCT018 TX25/2513ZTN13/2503Z
       
FQMA 250500Z 33003KT 9999 FEW020 17/15 Q1015 NOSIG
TAF FQMA 242200Z 2500/2606 01010KT CAVOK 
     BECMG 2506/2508 VRB03KT 9999 SCT020 
     BECMG 2512/2514 33005KT FEW020 
     BECMG 2518/2520 19010KT 
     BECMG 2600/2602 24010KT SCT015 TX30/2513ZTN18/2503Z
       
FQNC 250400Z 24006KT 9999 FEW020 22/21 Q1016
TAF FQNC 242200Z 2500/2600 24010KT 9999 SCT015 BKN020 
     BECMG 2506/2508 06008KT SCT020 
     BECMG 2512/2514 15010KT 
     BECMG 2518/2520 VRB03KT TX29/2513ZTN19/2503Z
       
FQNP 250500Z /////KT 9999 BKN020 22/21 Q1018
TAF FQNP 242200Z 2500/2606 24010KT 9999 SCT015 BKN020 
     BECMG 2506/2508 06008KT SCT020 
     BECMG 2512/2514 15010KT 
     BECMG 2518/2520 VRB03KT 
     BECMG 2600/2602 18018KT TX27/2513Z TN20/2503Z
       
FQPB 250500Z 24006KT 9999 FEW020 22/21 Q1016
TAF FQPB 242200Z 2500/2600 24010KT 9999 BKN020 
     BECMG 2506/2508 16010KT 
     BECMG 2512/2514 10015KT SCT025 
     BECMG 2518/2520 19006KT TX29/2513ZTN20/2503Z
       
FQQL 250500Z 30003KT 9999 FEW020 BKN100 20/19 Q1017
TAF FQQL 242200Z 2500/2600 09010KT 9999 SCT020 
     BECMG 2506/2508 31006KT 
     BECMG 2512/2514 12012KT 
     BECMG 2518/2520 03010KT TX31/2513ZTN20/2503Z
       
TAF FQTT 242200Z 2500/2600 VRB03KT 9999 BKN020 
     BECMG 2508/2510 11010KT 
     BECMG 2512/2514 04010KT SCT025 
     BECMG 2518/2520 VRB02KT TX32/2513ZTN22/2503Z
       
FQVL 250400Z 27003KT 9999 FEW020 18/17 Q1016
TAF FQVL 242200Z 2500/2600 03010KT 9999 BKN020 
     BECMG 2506/2508 32010KT CAVOK 
     BECMG 2512/2514 06010KT SCT025 
     BECMG 2518/2520 12008KT TX28/2513Z TN18/2503Z